Time;durP1;ratioP1;P1;durP2;ratioP2;P2;SDS_P1;SDS_P2;PMS_P1;PMS_P2;Temp;Humidity;BMP_temperature;BMP_pressure;BME280_temperature;BME280_humidity;BME280_pressure;Samples;Min_cycle;Max_cycle;Signal;HPM_P1;HPM_P2
2023/09/22 00:01:54;;;;;;;;;1.67;0.33;;;;;16.21;69.91;99613.22;5073900;27;45566;-66
2023/09/22 00:04:23;;;;;;;;;2.33;0.00;;;;;16.10;69.96;99601.28;5071589;27;45491;-66
2023/09/22 00:06:49;;;;;;;;;0.67;0.00;;;;;16.12;70.11;99598.59;5066209;27;45525;-70
2023/09/22 00:09:14;;;;;;;;;2.00;0.00;;;;;16.20;69.81;99611.50;5074733;28;45506;-70
2023/09/22 00:11:40;;;;;;;;;0.33;0.33;;;;;15.98;70.42;99599.13;5075594;28;45588;-70
2023/09/22 00:14:07;;;;;;;;;2.00;0.67;;;;;16.11;70.38;99616.22;5074757;28;46013;-69
2023/09/22 00:16:34;;;;;;;;;1.00;0.00;;;;;16.16;70.02;99612.53;5074196;27;45590;-70
2023/09/22 00:19:05;;;;;;;;;0.00;0.00;;;;;16.16;70.05;99612.53;5073954;28;45534;-72
2023/09/22 00:21:35;;;;;;;;;0.00;0.00;;;;;16.19;70.04;99612.41;5074530;28;45594;-70
2023/09/22 00:24:03;;;;;;;;;0.00;0.00;;;;;16.10;70.00;99589.84;5074052;28;45472;-70
2023/09/22 00:26:30;;;;;;;;;0.67;0.67;;;;;16.18;69.82;99600.13;5073966;28;45562;-69
2023/09/22 00:28:59;;;;;;;;;0.00;0.00;;;;;16.03;69.67;99597.16;5074359;27;45526;-70
2023/09/22 00:31:29;;;;;;;;;0.67;0.67;;;;;16.04;69.58;99593.59;5074242;28;45520;-70
2023/09/22 00:33:56;;;;;;;;;1.00;1.00;;;;;15.98;69.74;99608.81;5073984;28;45563;-70
2023/09/22 00:36:22;;;;;;;;;1.33;0.00;;;;;15.88;70.29;99609.16;5074844;28;45398;-69
2023/09/22 00:38:49;;;;;;;;;2.33;1.00;;;;;15.83;70.52;99619.06;5076233;27;45611;-68
2023/09/22 00:41:55;;;;;;;;;0.33;0.00;;;;;15.78;70.58;99621.00;5074178;28;45196;-69
2023/09/22 00:44:21;;;;;;;;;1.00;1.00;;;;;15.74;70.45;99600.91;5073459;28;45889;-69
2023/09/22 00:46:46;;;;;;;;;0.00;0.00;;;;;15.73;70.30;99600.94;5074378;28;45483;-69
2023/09/22 00:49:13;;;;;;;;;0.33;0.33;;;;;15.84;69.97;99602.28;5074084;28;45506;-69
2023/09/22 00:51:39;;;;;;;;;0.00;0.00;;;;;15.89;70.58;99615.31;5074078;28;45570;-69
2023/09/22 00:54:06;;;;;;;;;0.67;0.00;;;;;15.94;70.07;99613.34;5075539;28;46120;-69
2023/09/22 00:56:33;;;;;;;;;0.00;0.00;;;;;15.94;69.60;99615.97;5076634;27;45605;-69
2023/09/22 00:58:59;;;;;;;;;1.67;0.00;;;;;16.00;69.36;99612.28;5077397;27;45472;-70
2023/09/22 01:01:25;;;;;;;;;1.67;0.00;;;;;16.00;69.66;99610.47;5077637;27;45821;-71
2023/09/22 01:03:51;;;;;;;;;1.67;0.00;;;;;16.02;68.99;99599.88;5075832;28;46451;-70
2023/09/22 01:06:20;;;;;;;;;1.00;1.00;;;;;15.86;68.81;99579.31;5068348;28;45451;-69
2023/09/22 01:08:46;;;;;;;;;0.33;0.33;;;;;15.96;69.10;99600.09;5072298;27;45472;-70
2023/09/22 01:11:13;;;;;;;;;4.33;1.00;;;;;15.91;68.97;99605.53;5073064;27;46500;-68
2023/09/22 01:13:39;;;;;;;;;0.00;0.00;;;;;15.91;68.71;99608.19;5071141;27;45987;-69
2023/09/22 01:16:05;;;;;;;;;0.67;0.00;;;;;15.82;68.87;99609.38;5073125;28;45627;-68
2023/09/22 01:18:31;;;;;;;;;0.00;0.00;;;;;15.76;69.33;99606.13;5071945;28;45593;-67
2023/09/22 01:20:59;;;;;;;;;1.33;1.00;;;;;15.69;69.82;99606.31;5073467;28;45452;-68
2023/09/22 01:23:25;;;;;;;;;2.00;1.00;;;;;15.73;69.13;99604.47;5073134;27;46177;-67
2023/09/22 01:25:51;;;;;;;;;0.00;0.00;;;;;15.77;69.28;99599.94;5071261;28;45426;-67
2023/09/22 01:28:17;;;;;;;;;0.00;0.00;;;;;15.76;68.92;99592.94;5071618;28;45670;-68
2023/09/22 01:30:49;;;;;;;;;1.00;1.00;;;;;15.82;68.65;99592.69;5075067;28;45495;-68
2023/09/22 01:33:16;;;;;;;;;4.67;1.00;;;;;15.82;68.62;99600.63;5076593;28;45492;-68
2023/09/22 01:35:43;;;;;;;;;2.00;1.00;;;;;15.87;68.44;99604.81;5076773;27;45326;-68
2023/09/22 01:38:27;;;;;;;;;0.00;0.00;;;;;15.92;68.19;99593.19;5077625;27;45502;-69
2023/09/22 01:40:54;;;;;;;;;2.00;1.00;;;;;15.94;68.24;99596.66;5077225;27;45511;-69
2023/09/22 01:43:21;;;;;;;;;0.00;0.00;;;;;15.95;68.10;99593.97;5075593;28;47796;-69
2023/09/22 01:45:47;;;;;;;;;2.00;0.00;;;;;15.94;67.54;99604.56;5068704;27;45480;-69
2023/09/22 01:48:13;;;;;;;;;3.33;0.00;;;;;15.96;67.68;99606.22;5075988;28;45203;-69
2023/09/22 01:50:40;;;;;;;;;1.00;1.00;;;;;15.99;67.41;99603.50;5077149;28;45614;-69
2023/09/22 01:53:10;;;;;;;;;0.00;0.00;;;;;15.97;67.50;99599.16;5076602;27;46721;-69
2023/09/22 01:55:37;;;;;;;;;0.00;0.00;;;;;15.87;67.61;99593.38;5076470;28;45515;-69
2023/09/22 01:58:11;;;;;;;;;0.00;0.00;;;;;15.90;67.41;99595.91;5086572;27;45521;-69
2023/09/22 02:00:37;;;;;;;;;0.00;0.00;;;;;15.89;67.77;99604.75;5076780;27;45497;-70
2023/09/22 02:03:05;;;;;;;;;1.00;1.00;;;;;15.78;67.79;99589.31;5075187;27;47251;-70
2023/09/22 02:05:31;;;;;;;;;1.00;1.00;;;;;15.77;67.85;99586.72;5076539;27;45897;-69
2023/09/22 02:08:00;;;;;;;;;0.00;0.00;;;;;15.87;67.74;99606.56;5064011;27;46276;-67
2023/09/22 02:10:27;;;;;;;;;3.33;1.00;;;;;15.87;67.70;99602.19;5071118;28;45350;-69
2023/09/22 02:12:55;;;;;;;;;0.00;0.00;;;;;15.93;67.79;99609.00;5068689;27;48017;-70
2023/09/22 02:15:21;;;;;;;;;2.00;0.67;;;;;15.94;67.17;99617.78;5071855;27;46500;-69
2023/09/22 02:17:47;;;;;;;;;0.00;0.00;;;;;15.94;66.64;99610.69;5071878;27;45335;-68
2023/09/22 02:20:22;;;;;;;;;0.00;0.00;;;;;15.95;66.86;99611.59;5070860;27;46044;-68
2023/09/22 02:22:55;;;;;;;;;1.00;0.00;;;;;15.93;66.85;99616.91;5072851;28;45806;-68
2023/09/22 02:25:22;;;;;;;;;0.00;0.00;;;;;15.92;66.56;99612.53;5072523;28;45492;-68
2023/09/22 02:27:52;;;;;;;;;1.00;1.00;;;;;15.87;66.58;99606.56;5073279;27;45736;-70
2023/09/22 02:30:18;;;;;;;;;2.67;0.33;;;;;15.85;66.62;99604.00;5074795;28;45422;-69
2023/09/22 02:32:49;;;;;;;;;0.67;0.67;;;;;15.85;66.91;99611.03;5076502;27;46480;-67
2023/09/22 02:35:23;;;;;;;;;0.00;0.00;;;;;15.82;66.43;99600.63;5075961;27;45469;-68
2023/09/22 02:37:50;;;;;;;;;0.00;0.00;;;;;15.84;66.32;99610.19;5072960;27;45434;-67
2023/09/22 02:40:15;;;;;;;;;2.00;0.00;;;;;15.74;66.72;99608.81;5076589;27;45520;-68
2023/09/22 02:42:43;;;;;;;;;0.67;0.67;;;;;15.73;66.45;99604.47;5075811;27;45927;-66
2023/09/22 02:45:09;;;;;;;;;0.00;0.00;;;;;15.79;66.10;99616.56;5075647;28;45475;-69
2023/09/22 02:47:40;;;;;;;;;0.67;0.67;;;;;15.76;66.71;99624.63;5075511;27;45542;-69
2023/09/22 02:50:10;;;;;;;;;1.33;1.00;;;;;15.68;66.42;99615.19;5072819;27;45530;-68
2023/09/22 02:52:39;;;;;;;;;0.00;0.00;;;;;15.68;66.42;99612.53;5075156;28;46589;-68
2023/09/22 02:55:09;;;;;;;;;2.00;0.00;;;;;15.71;66.60;99618.63;5074425;27;45477;-68
2023/09/22 02:57:38;;;;;;;;;0.00;0.00;;;;;15.59;67.00;99609.34;5075751;27;45264;-69
2023/09/22 03:00:18;;;;;;;;;2.33;0.00;;;;;15.71;66.87;99622.16;5076648;27;45395;-67
2023/09/22 03:02:43;;;;;;;;;1.33;0.00;;;;;15.68;67.03;99620.44;5074792;27;46773;-68
2023/09/22 03:05:10;;;;;;;;;1.33;1.00;;;;;15.68;66.78;99616.94;5075480;27;45812;-67
2023/09/22 03:07:35;;;;;;;;;1.00;1.00;;;;;15.53;66.94;99609.59;5074549;27;45571;-69
2023/09/22 03:10:05;;;;;;;;;2.33;1.00;;;;;15.42;67.01;99589.72;5073583;27;45415;-68
2023/09/22 03:12:30;;;;;;;;;0.00;0.00;;;;;15.45;66.96;99604.59;5073630;28;45700;-68
2023/09/22 03:14:56;;;;;;;;;2.00;0.00;;;;;15.42;67.15;99597.66;5075205;27;45432;-68
2023/09/22 03:17:21;;;;;;;;;1.00;1.00;;;;;15.35;67.21;99592.63;5075941;28;45419;-67
2023/09/22 03:19:53;;;;;;;;;1.00;1.00;;;;;15.18;67.31;99575.63;5075608;28;45344;-68
2023/09/22 03:22:19;;;;;;;;;2.67;1.00;;;;;15.29;67.75;99609.53;5074075;28;47638;-67
2023/09/22 03:24:44;;;;;;;;;2.00;1.00;;;;;15.26;68.24;99607.03;5075127;28;45522;-71
2023/09/22 03:27:10;;;;;;;;;0.67;0.33;;;;;15.26;67.86;99614.94;5075352;28;45617;-69
2023/09/22 03:29:35;;;;;;;;;1.00;1.00;;;;;15.34;67.34;99622.56;5075247;28;45592;-68
2023/09/22 03:32:01;;;;;;;;;0.67;0.00;;;;;15.30;67.43;99615.69;5073872;28;47578;-67
2023/09/22 03:34:27;;;;;;;;;1.67;0.00;;;;;15.10;67.47;99601.41;5074763;28;45525;-69
2023/09/22 03:36:52;;;;;;;;;1.00;1.00;;;;;15.18;67.44;99617.81;5075285;28;45532;-69
2023/09/22 03:39:21;;;;;;;;;1.00;1.00;;;;;15.24;67.18;99622.88;5073982;28;45973;-68
2023/09/22 03:41:52;;;;;;;;;0.67;0.00;;;;;15.15;67.38;99599.47;5074500;28;46505;-68
2023/09/22 03:44:21;;;;;;;;;0.67;0.67;;;;;15.17;67.45;99621.38;5074190;27;45441;-70
2023/09/22 03:46:47;;;;;;;;;1.33;1.00;;;;;14.97;67.66;99574.63;5073858;27;45443;-67
2023/09/22 03:49:13;;;;;;;;;4.00;1.00;;;;;15.13;67.53;99606.56;5074038;28;45602;-70
2023/09/22 03:51:38;;;;;;;;;1.33;1.33;;;;;14.99;67.80;99595.63;5074457;28;46040;-67
2023/09/22 03:54:05;;;;;;;;;0.00;0.00;;;;;15.20;67.61;99612.50;5075482;28;45372;-68
2023/09/22 03:56:31;;;;;;;;;2.00;1.00;;;;;15.18;67.75;99609.91;5074479;28;45608;-69
2023/09/22 03:58:57;;;;;;;;;3.00;1.00;;;;;15.17;68.12;99616.09;5075054;28;45548;-69
2023/09/22 04:01:28;;;;;;;;;1.67;1.00;;;;;15.05;68.22;99591.03;5074034;28;45456;-68
2023/09/22 04:03:54;;;;;;;;;0.33;0.33;;;;;15.20;68.65;99620.41;5073451;28;46002;-70
2023/09/22 04:06:19;;;;;;;;;3.00;1.00;;;;;15.05;68.77;99598.06;5074590;28;45482;-69
2023/09/22 04:08:49;;;;;;;;;3.67;1.67;;;;;14.93;68.44;99567.72;5074735;28;45479;-69
2023/09/22 04:11:18;;;;;;;;;0.67;0.67;;;;;15.07;68.82;99580.44;5075243;28;46120;-69
2023/09/22 04:13:44;;;;;;;;;4.00;1.00;;;;;15.20;68.95;99616.00;5084890;27;45992;-69
2023/09/22 04:17:03;;;;;;;;;3.67;1.33;;;;;15.17;69.18;99602.91;5074802;28;45567;-70
2023/09/22 04:19:54;;;;;;;;;3.00;1.67;;;;;15.19;68.84;99601.09;5071265;27;45758;-71
2023/09/22 04:22:52;;;;;;;;;3.00;1.00;;;;;15.09;69.85;99607.63;5075594;28;45724;-69
2023/09/22 04:25:29;;;;;;;;;1.67;1.00;;;;;14.84;69.41;99557.50;5072267;28;45565;-69
2023/09/22 04:28:07;;;;;;;;;2.67;1.67;;;;;15.10;69.33;99603.19;5071744;27;45506;-68
2023/09/22 04:30:36;;;;;;;;;4.33;1.33;;;;;15.02;69.72;99608.75;5075281;27;45585;-69
2023/09/22 04:33:06;;;;;;;;;3.33;3.00;;;;;15.03;69.61;99613.94;5074752;28;46645;-70
2023/09/22 04:35:32;;;;;;;;;4.67;3.33;;;;;14.96;70.04;99593.13;5078786;27;45478;-68
2023/09/22 04:38:04;;;;;;;;;3.33;2.00;;;;;15.02;70.04;99606.97;5077895;27;45324;-69
2023/09/22 04:40:36;;;;;;;;;3.33;2.00;;;;;15.00;69.78;99589.47;5066296;27;45348;-68
2023/09/22 04:43:07;;;;;;;;;2.33;2.33;;;;;14.93;69.79;99588.81;5072975;27;45288;-69
2023/09/22 04:45:37;;;;;;;;;2.00;2.00;;;;;14.91;69.56;99593.28;5073575;27;45664;-67
2023/09/22 04:48:06;;;;;;;;;5.00;2.33;;;;;14.80;69.87;99605.94;5071514;27;45489;-70
2023/09/22 04:50:36;;;;;;;;;3.00;3.00;;;;;14.77;70.14;99598.16;5072198;28;45528;-68
2023/09/22 04:53:04;;;;;;;;;6.00;3.33;;;;;14.76;70.38;99604.31;5074328;28;46470;-68
2023/09/22 04:55:31;;;;;;;;;4.67;4.00;;;;;14.64;70.70;99592.44;5071546;27;45482;-67
2023/09/22 04:58:00;;;;;;;;;6.67;2.00;;;;;14.56;71.14;99592.66;5074917;27;45549;-70
2023/09/22 05:00:27;;;;;;;;;5.67;3.33;;;;;14.59;70.96;99610.13;5074955;27;45684;-71
2023/09/22 05:02:56;;;;;;;;;2.33;2.33;;;;;14.66;70.96;99614.31;5075003;27;45808;-69
2023/09/22 05:05:22;;;;;;;;;5.00;2.00;;;;;14.63;70.84;99609.13;5068539;27;45607;-67
2023/09/22 05:07:49;;;;;;;;;3.33;3.00;;;;;14.57;70.28;99604.09;5074557;28;45512;-67
2023/09/22 05:10:16;;;;;;;;;2.00;2.00;;;;;14.61;70.54;99618.88;5073338;27;45452;-68
2023/09/22 05:12:41;;;;;;;;;2.00;2.00;;;;;14.59;70.31;99612.78;5074393;27;45475;-68
2023/09/22 05:15:08;;;;;;;;;1.33;1.00;;;;;14.07;70.54;99538.03;5073149;28;45445;-68
2023/09/22 05:17:34;;;;;;;;;3.00;1.00;;;;;14.54;70.70;99617.34;5073320;28;45940;-68
2023/09/22 05:20:00;;;;;;;;;1.00;1.00;;;;;14.49;71.36;99599.00;5073711;28;45596;-69
2023/09/22 05:22:26;;;;;;;;;1.33;1.00;;;;;14.45;71.53;99591.25;5076063;28;46327;-69
2023/09/22 05:24:52;;;;;;;;;2.67;2.00;;;;;14.36;71.54;99577.47;5077517;27;45510;-69
2023/09/22 05:27:18;;;;;;;;;2.00;1.00;;;;;14.60;71.20;99609.25;5077120;28;45580;-70
2023/09/22 05:29:44;;;;;;;;;4.00;2.00;;;;;14.66;71.47;99614.31;5077247;27;45420;-68
2023/09/22 05:32:10;;;;;;;;;4.67;2.00;;;;;14.47;71.57;99576.25;5076797;27;45368;-70
2023/09/22 05:34:38;;;;;;;;;3.67;3.00;;;;;14.68;71.50;99607.22;5076775;28;45509;-69
2023/09/22 05:37:03;;;;;;;;;2.00;2.00;;;;;14.62;71.55;99591.63;5066835;27;45478;-69
2023/09/22 05:39:29;;;;;;;;;2.00;2.00;;;;;14.71;71.44;99614.16;5076320;27;45557;-67
2023/09/22 05:41:55;;;;;;;;;3.00;3.00;;;;;14.52;71.77;99582.25;5061917;27;48152;-69
2023/09/22 05:44:21;;;;;;;;;3.00;2.00;;;;;14.71;71.74;99612.41;5062312;28;45438;-69
2023/09/22 05:46:51;;;;;;;;;2.67;2.67;;;;;14.49;72.04;99584.97;5074850;28;45881;-71
2023/09/22 05:49:16;;;;;;;;;6.33;5.33;;;;;14.68;72.01;99604.56;5076950;27;45550;-69
2023/09/22 05:51:48;;;;;;;;;3.33;3.00;;;;;14.66;71.83;99608.19;5074873;28;45371;-72
2023/09/22 05:54:15;;;;;;;;;6.00;2.00;;;;;14.73;72.27;99607.91;5077747;28;45402;-69
2023/09/22 05:56:41;;;;;;;;;3.00;2.00;;;;;14.62;71.63;99591.63;5077024;27;45448;-69
2023/09/22 05:59:06;;;;;;;;;2.33;2.00;;;;;14.73;71.84;99588.59;5064450;28;45301;-70
2023/09/22 06:01:36;;;;;;;;;1.00;1.00;;;;;14.83;71.78;99592.69;5076140;27;45338;-71
2023/09/22 06:04:04;;;;;;;;;2.00;1.33;;;;;14.68;72.02;99565.03;5070101;27;45505;-70
2023/09/22 06:06:30;;;;;;;;;5.00;2.33;;;;;14.83;72.56;99590.03;5076925;28;46774;-70
2023/09/22 06:08:59;;;;;;;;;1.67;1.67;;;;;14.69;72.65;99576.44;5079474;28;45502;-69
2023/09/22 06:11:26;;;;;;;;;4.00;2.00;;;;;14.48;72.80;99562.19;5075714;27;45820;-69
2023/09/22 06:13:52;;;;;;;;;1.67;1.67;;;;;14.32;73.03;99543.38;5076071;28;45735;-69
2023/09/22 06:16:18;;;;;;;;;2.00;2.00;;;;;14.65;73.80;99606.47;5076576;28;45528;-69
2023/09/22 06:18:44;;;;;;;;;2.33;2.00;;;;;14.61;73.73;99630.25;5079268;28;45593;-69
2023/09/22 06:21:11;;;;;;;;;1.67;1.67;;;;;14.60;73.90;99610.09;5076266;27;46348;-71
2023/09/22 06:23:38;;;;;;;;;2.67;2.67;;;;;14.58;74.16;99603.16;5073386;27;45511;-69
2023/09/22 06:26:05;;;;;;;;;3.00;1.00;;;;;14.56;74.39;99607.63;5076362;27;45433;-69
2023/09/22 06:28:34;;;;;;;;;2.00;1.00;;;;;14.48;75.65;99594.66;5075234;27;45485;-71
2023/09/22 06:31:02;;;;;;;;;2.00;1.00;;;;;14.57;75.92;99617.25;5076394;27;46564;-72
2023/09/22 06:33:27;;;;;;;;;2.00;1.67;;;;;14.49;76.06;99616.59;5075272;27;46966;-69
2023/09/22 06:36:02;;;;;;;;;2.67;2.00;;;;;14.31;76.34;99582.03;5069280;27;47210;-70
2023/09/22 06:38:29;;;;;;;;;2.00;2.00;;;;;14.26;76.34;99572.53;5085353;27;45644;-68
2023/09/22 06:40:58;;;;;;;;;3.00;1.00;;;;;14.43;76.82;99621.16;5072941;27;46063;-69
2023/09/22 06:43:24;;;;;;;;;3.00;2.00;;;;;14.39;77.51;99614.25;5076198;27;45538;-68
2023/09/22 06:45:53;;;;;;;;;3.33;2.00;;;;;14.25;77.22;99591.91;5078641;27;45931;-70
2023/09/22 06:48:25;;;;;;;;;0.00;0.00;;;;;14.34;77.82;99608.28;5078783;27;45615;-69
2023/09/22 06:50:53;;;;;;;;;3.00;2.00;;;;;14.09;77.48;99566.03;5068066;27;46225;-68
2023/09/22 06:53:21;;;;;;;;;3.00;2.00;;;;;14.25;78.13;99612.97;5078975;27;45551;-68
2023/09/22 06:55:49;;;;;;;;;3.00;3.00;;;;;13.97;78.75;99572.53;5077621;27;45555;-68
2023/09/22 06:58:14;;;;;;;;;4.00;3.33;;;;;14.23;78.84;99620.91;5077596;27;45824;-70
2023/09/22 07:00:40;;;;;;;;;1.67;1.00;;;;;14.26;79.10;99617.31;5077844;27;47997;-73
2023/09/22 07:03:06;;;;;;;;;2.00;1.33;;;;;14.19;78.57;99604.34;5073648;27;45591;-76
2023/09/22 07:05:32;;;;;;;;;1.67;1.67;;;;;14.14;78.95;99597.47;5077605;27;45270;-72
2023/09/22 07:07:58;;;;;;;;;1.67;1.00;;;;;14.20;79.17;99603.44;5079153;27;45489;-72
2023/09/22 07:10:24;;;;;;;;;4.00;3.00;;;;;14.14;79.29;99586.94;5079942;27;46058;-71
2023/09/22 07:12:52;;;;;;;;;3.67;1.00;;;;;14.24;78.70;99601.56;5078625;27;45418;-70
2023/09/22 07:15:22;;;;;;;;;3.00;2.00;;;;;14.38;78.91;99606.41;5078939;27;45577;-76
2023/09/22 07:17:48;;;;;;;;;2.00;2.00;;;;;14.48;78.77;99615.75;5077324;27;45677;-74
2023/09/22 07:20:14;;;;;;;;;2.67;2.00;;;;;14.30;79.10;99590.81;5078689;27;46119;-74
2023/09/22 07:22:42;;;;;;;;;4.00;2.33;;;;;14.38;79.61;99616.94;5070064;27;45590;-73
2023/09/22 07:25:08;;;;;;;;;2.00;2.00;;;;;14.38;79.84;99611.69;5078450;27;45552;-72
2023/09/22 07:27:36;;;;;;;;;3.67;2.00;;;;;14.45;79.59;99601.78;5079417;27;45472;-70
2023/09/22 07:30:02;;;;;;;;;1.67;1.67;;;;;14.51;79.93;99602.47;5068063;27;45892;-73
2023/09/22 07:32:30;;;;;;;;;1.67;1.67;;;;;14.42;80.02;99585.16;5079476;27;45374;-70
2023/09/22 07:34:55;;;;;;;;;3.00;2.00;;;;;14.52;80.01;99595.41;5071738;27;45706;-71
2023/09/22 07:37:21;;;;;;;;;1.00;1.00;;;;;14.60;79.69;99598.72;5070572;27;46665;-74
2023/09/22 07:39:48;;;;;;;;;4.00;1.33;;;;;14.52;79.39;99574.34;5074682;27;46523;-70
2023/09/22 07:42:15;;;;;;;;;5.00;1.00;;;;;14.77;78.92;99590.25;5079372;27;46527;-74
2023/09/22 07:44:40;;;;;;;;;3.67;2.00;;;;;14.73;78.71;99564.88;5075134;27;45574;-69
2023/09/22 07:47:10;;;;;;;;;3.33;2.00;;;;;14.94;78.05;99603.69;5071571;27;45598;-73
2023/09/22 07:49:40;;;;;;;;;2.00;2.00;;;;;14.99;78.21;99603.53;5077850;27;45512;-70
2023/09/22 07:52:13;;;;;;;;;3.00;2.33;;;;;14.91;77.68;99579.22;5070061;27;45687;-73
2023/09/22 07:54:39;;;;;;;;;1.33;1.33;;;;;15.07;77.55;99593.63;5066662;27;45503;-71
2023/09/22 07:57:05;;;;;;;;;0.00;0.00;;;;;14.87;77.92;99546.81;5069919;27;45476;-71
2023/09/22 07:59:31;;;;;;;;;1.67;1.00;;;;;15.08;78.13;99594.47;5072904;27;46944;-71
2023/09/22 08:02:02;;;;;;;;;2.67;1.00;;;;;15.04;77.77;99591.06;5074975;27;45549;-73
2023/09/22 08:04:27;;;;;;;;;1.00;1.00;;;;;15.02;78.46;99601.69;5074759;27;45646;-74
2023/09/22 08:06:59;;;;;;;;;1.00;1.00;;;;;14.91;78.65;99580.09;5071599;27;45408;-75
2023/09/22 08:09:26;;;;;;;;;2.67;1.33;;;;;14.98;77.93;99565.78;5073848;27;46488;-77
2023/09/22 08:11:52;;;;;;;;;2.00;2.00;;;;;15.13;77.83;99585.47;5073477;27;45576;-74
2023/09/22 08:14:18;;;;;;;;;2.67;1.33;;;;;14.93;78.15;99574.78;5077114;27;45507;-73
2023/09/22 08:16:44;;;;;;;;;3.33;1.33;;;;;15.04;78.94;99586.69;5076467;27;45753;-75
2023/09/22 08:19:11;;;;;;;;;3.33;2.00;;;;;15.12;77.89;99591.69;5073432;27;46465;-73
2023/09/22 08:21:40;;;;;;;;;1.67;1.67;;;;;14.99;77.81;99580.66;5072840;27;45549;-74
2023/09/22 08:24:07;;;;;;;;;3.33;1.67;;;;;15.04;77.65;99584.03;5074138;28;45448;-73
2023/09/22 08:26:34;;;;;;;;;3.33;1.00;;;;;15.08;78.21;99597.97;5076387;27;45518;-74
2023/09/22 08:29:05;;;;;;;;;2.67;1.00;;;;;15.02;78.25;99587.66;5076943;27;46464;-74
2023/09/22 08:31:31;;;;;;;;;3.33;1.00;;;;;15.14;77.68;99595.13;5075129;27;45338;-76
2023/09/22 08:33:57;;;;;;;;;2.67;1.00;;;;;15.15;77.65;99596.84;5075953;27;45423;-76
2023/09/22 08:36:22;;;;;;;;;1.33;1.00;;;;;15.28;76.49;99586.72;5075584;27;45566;-71
2023/09/22 08:38:51;;;;;;;;;2.00;0.67;;;;;15.41;75.49;99593.28;5075972;27;45640;-70
2023/09/22 08:41:17;;;;;;;;;0.67;0.00;;;;;15.50;75.20;99588.59;5074926;27;45570;-70
2023/09/22 08:43:47;;;;;;;;;2.67;1.00;;;;;15.46;74.93;99587.81;5075497;27;45647;-68
2023/09/22 08:46:14;;;;;;;;;2.00;1.00;;;;;15.33;74.96;99553.13;5074167;27;45501;-72
2023/09/22 08:48:40;;;;;;;;;1.00;1.00;;;;;15.72;74.30;99602.75;5074393;28;46285;-73
2023/09/22 08:51:05;;;;;;;;;3.00;2.00;;;;;15.79;74.42;99598.09;5075711;27;45460;-75
2023/09/22 08:53:32;;;;;;;;;1.00;1.00;;;;;15.46;73.70;99543.81;5077079;27;45396;-77
2023/09/22 08:56:04;;;;;;;;;3.67;1.00;;;;;15.81;74.19;99591.84;5074551;27;45500;-78
2023/09/22 08:58:30;;;;;;;;;1.00;1.00;;;;;15.80;73.64;99613.00;5076493;27;45491;-72
2023/09/22 09:00:59;;;;;;;;;0.00;0.00;;;;;15.90;73.48;99588.00;5076169;27;45457;-72
2023/09/22 09:03:27;;;;;;;;;1.33;1.33;;;;;16.32;73.16;99627.75;5074822;27;45440;-73
2023/09/22 09:06:06;;;;;;;;;1.00;1.00;;;;;16.48;72.36;99632.41;5075201;27;45694;-75
2023/09/22 09:08:35;;;;;;;;;0.00;0.00;;;;;16.51;70.23;99627.88;5073141;27;46727;-70
2023/09/22 09:11:10;;;;;;;;;0.00;0.00;;;;;16.33;68.80;99615.38;5075350;27;45416;-72
2023/09/22 09:13:37;;;;;;;;;0.67;0.00;;;;;16.31;68.51;99617.22;5073415;27;45789;-72
2023/09/22 09:16:09;;;;;;;;;0.00;0.00;;;;;16.17;68.18;99607.19;5075108;27;45469;-74
2023/09/22 09:18:35;;;;;;;;;0.00;0.00;;;;;16.00;68.17;99564.72;5074198;28;46959;-74
2023/09/22 09:21:14;;;;;;;;;0.00;0.00;;;;;16.29;68.74;99596.13;5073092;28;45910;-74
2023/09/22 09:23:58;;;;;;;;;0.67;0.00;;;;;16.57;69.06;99604.75;5074627;27;46639;-71
2023/09/22 09:26:27;;;;;;;;;0.00;0.00;;;;;16.87;68.56;99603.53;5074285;28;45489;-73
2023/09/22 09:28:53;;;;;;;;;0.00;0.00;;;;;17.22;67.92;99617.00;5069512;28;47395;-75
2023/09/22 09:31:20;;;;;;;;;0.00;0.00;;;;;17.51;67.68;99610.47;5054026;27;45487;-74
2023/09/22 09:33:54;;;;;;;;;0.33;0.33;;;;;17.72;67.30;99613.06;5073549;28;45430;-72
2023/09/22 09:36:19;;;;;;;;;0.00;0.00;;;;;17.97;66.08;99623.44;5075245;27;45496;-74
2023/09/22 09:38:46;;;;;;;;;1.00;0.00;;;;;17.99;65.15;99618.94;5066090;27;46025;-75
2023/09/22 09:41:12;;;;;;;;;0.00;0.00;;;;;17.73;65.38;99601.56;5073573;27;45668;-75
2023/09/22 09:43:44;;;;;;;;;0.00;0.00;;;;;17.56;65.08;99592.59;5075185;27;45554;-76
2023/09/22 09:46:14;;;;;;;;;0.00;0.00;;;;;17.67;66.06;99618.56;5076912;27;45337;-80
2023/09/22 09:48:55;;;;;;;;;3.00;0.00;;;;;17.89;65.30;99644.97;5076447;27;46025;-72
2023/09/22 09:51:24;;;;;;;;;20.33;19.67;;;;;17.99;63.56;99638.31;5068579;28;45389;-73
2023/09/22 09:53:57;;;;;;;;;16.67;15.33;;;;;18.10;62.28;99642.25;5074058;27;45801;-75
2023/09/22 09:56:26;;;;;;;;;59.25;45.25;;;;;18.13;62.30;99620.94;5071491;27;45681;-77
2023/09/22 09:58:53;;;;;;;;;24.33;18.00;;;;;18.08;61.77;99578.75;5075980;28;46015;-73
2023/09/22 10:01:19;;;;;;;;;12.33;7.00;;;;;18.60;61.68;99621.31;5076945;27;45230;-78
2023/09/22 10:03:46;;;;;;;;;4.00;3.33;;;;;18.93;60.10;99635.66;5077177;27;45607;-78
2023/09/22 10:06:13;;;;;;;;;4.00;3.00;;;;;19.04;59.03;99618.25;5075763;27;45493;-76
2023/09/22 10:08:39;;;;;;;;;6.33;5.00;;;;;19.54;60.17;99655.56;5075843;27;45570;-76
2023/09/22 10:11:12;;;;;;;;;5.00;3.33;;;;;19.78;59.68;99650.78;5076704;28;45668;-78
2023/09/22 10:13:40;;;;;;;;;2.67;0.00;;;;;19.76;56.69;99644.69;5077757;27;45611;-77
2023/09/22 10:16:08;;;;;;;;;1.00;1.00;;;;;19.86;56.34;99665.38;5080441;27;45417;-76
2023/09/22 10:18:59;;;;;;;;;2.00;0.00;;;;;19.56;56.02;99611.19;5081388;27;46414;-75
2023/09/22 10:21:48;;;;;;;;;1.00;0.00;;;;;19.88;56.37;99654.66;5084126;27;45451;-76
2023/09/22 10:24:23;;;;;;;;;0.00;0.00;;;;;19.95;56.25;99679.97;5083105;28;45269;-78
2023/09/22 10:27:06;;;;;;;;;2.00;0.33;;;;;19.91;57.91;99697.88;5079820;27;45416;-76
2023/09/22 10:29:35;;;;;;;;;1.00;1.00;;;;;19.80;57.48;99708.22;5076945;27;45475;-71
2023/09/22 10:32:18;;;;;;;;;0.00;0.00;;;;;19.40;55.93;99669.53;5079872;28;45333;-74
2023/09/22 10:34:44;;;;;;;;;0.00;0.00;;;;;19.72;55.66;99686.50;5076102;27;45372;-75
2023/09/22 10:37:10;;;;;;;;;0.67;0.67;;;;;20.20;54.20;99721.19;5077495;27;45490;-76
2023/09/22 10:39:51;;;;;;;;;0.00;0.00;;;;;20.33;53.61;99724.88;5076954;27;45506;-75
2023/09/22 10:42:18;;;;;;;;;1.00;1.00;;;;;20.24;53.36;99730.69;5078138;27;45540;-77
2023/09/22 10:45:05;;;;;;;;;0.00;0.00;;;;;19.95;54.70;99743.75;5075956;28;45463;-75
2023/09/22 10:47:51;;;;;;;;;0.33;0.33;;;;;19.43;55.79;99696.81;5076970;27;45291;-71
2023/09/22 10:50:21;;;;;;;;;0.00;0.00;;;;;19.40;55.58;99741.25;5080910;27;46076;-73
2023/09/22 10:53:03;;;;;;;;;1.33;1.33;;;;;19.23;55.41;99756.22;5043810;27;45553;-72
2023/09/22 10:55:31;;;;;;;;;1.00;1.00;;;;;19.31;56.06;99773.56;5054509;27;46401;-74
2023/09/22 10:57:59;;;;;;;;;0.00;0.00;;;;;19.34;55.90;99774.28;5076088;28;45445;-76
2023/09/22 11:00:26;;;;;;;;;2.00;0.00;;;;;19.52;55.32;99763.66;5077050;27;46392;-70
2023/09/22 11:02:53;;;;;;;;;0.00;0.00;;;;;19.67;55.12;99781.47;5075090;27;45844;-74
2023/09/22 11:05:20;;;;;;;;;1.00;1.00;;;;;19.51;54.49;99740.72;5076084;27;45840;-76
2023/09/22 11:07:47;;;;;;;;;0.00;0.00;;;;;19.72;54.59;99781.25;5075803;27;45379;-74
2023/09/22 11:10:21;;;;;;;;;0.00;0.00;;;;;20.10;53.95;99795.25;5076525;27;46465;-75
2023/09/22 11:12:52;;;;;;;;;0.00;0.00;;;;;20.24;53.68;99799.81;5075737;27;45486;-72
2023/09/22 11:15:19;;;;;;;;;2.00;1.33;;;;;19.97;53.29;99757.81;5075590;27;45605;-75
2023/09/22 11:17:48;;;;;;;;;1.00;1.00;;;;;20.22;53.08;99805.25;5077756;27;45585;-74
2023/09/22 11:20:21;;;;;;;;;1.75;1.00;;;;;19.81;53.64;99771.06;5076419;27;46058;-77
2023/09/22 11:22:47;;;;;;;;;0.50;0.25;;;;;19.99;53.01;99810.91;5076272;27;45803;-76
2023/09/22 11:25:13;;;;;;;;;0.67;0.67;;;;;20.04;52.89;99814.16;5078042;27;45461;-73
2023/09/22 11:27:43;;;;;;;;;1.00;1.00;;;;;22.07;48.36;99806.41;5075916;27;45530;-72
2023/09/22 11:30:14;;;;;;;;;2.00;0.67;;;;;22.05;47.52;99810.13;5075596;27;45443;-74
2023/09/22 11:32:47;;;;;;;;;1.50;1.00;;;;;21.62;47.70;99796.66;5075466;27;45357;-77
2023/09/22 11:35:41;;;;;;;;;1.67;1.00;;;;;20.70;48.86;99808.88;5074614;27;45565;-77
2023/09/22 11:38:28;;;;;;;;;1.00;1.00;;;;;20.31;50.45;99842.00;5070071;27;45461;-77
2023/09/22 11:41:15;;;;;;;;;2.00;1.00;;;;;20.25;51.05;99841.44;5075077;27;45748;-74
2023/09/22 11:43:44;;;;;;;;;2.33;2.00;;;;;20.41;50.48;99858.31;5074775;27;46384;-74